Aérodrome :
LOGIN :

S'inscrire | Disclaimer

   EN    FR    IT 

 










Légende :    VFR   VFR Marginal   IFR   IFR Intensif   IFR Très Intensif
Visi : 
Plafond : 
>= 8 km
>= 3000ft
5 à 8 km
1000 à 3000 ft
1500m à 5 km
500 à 1000 ft
800 à 1500m
200 à 500 ft
< 800m
< 200 ft
Symboles :   Orages  Brouillard  Fortes neiges  Fortes précipitations  Vent > 20 kt
SIGMETs :   Divers  Orages  Givrage  Turbulence  Onde Orograph.  Cendres Volcan.






- Altitude de l'aérodrome : 21 ft
- Code IATA : BJV


LTFE - Bodrum

DERNIER METAR :
  • 200750Z 04010KT 360V070 CAVOK 10/M07 Q1028 NOSIG RMK RWY10 01010KT 340V070

METARs EXPIRÉS :
  • 200720Z 05010KT 020V080 CAVOK 09/M06 Q1028 NOSIG RMK RWY10 05006KT 310V110
  • 200650Z 11004KT 060V160 CAVOK 07/M04 Q1028 NOSIG RMK RWY10 11006KT
  • 200620Z VRB03KT CAVOK 07/M06 Q1028 NOSIG RMK RWY10 04009KT 360V080
  • 200550Z 04010KT 010V070 CAVOK 07/M07 Q1027 NOSIG RMK RWY10 02005KT 330V060
  • 200520Z VRB03KT CAVOK 04/M06 Q1027 NOSIG RMK RWY10 35007G17KT 280V040

TAF TAF LTFE
Valide du 20 à 06h jusqu'au 21 à 06h UTC


200440Z 2006/2106 04006KT CAVOK
BECMG 2007/2009 02016KT
BECMG 2016/2018 36006KT



MET'MAP, la Météo Aéronautique d'un coup d'oeil ! - Copyright ORBIFLY Décembre 2007 - Disclaimer

ORBIFLY MET'MAP TEAM :

Programmation & Développement : Alexandra Zaïnal
Sur une idée originale de : Baudouin d'Aumeries
Assistance à la programmation : Marc-Olivier Méhu
Soutien technique & logistique : Manuel Goepfert

Contact : metmap@orbifly.com




SOURCES & CREDITS :

   NOAA